createdAt,value
2018-02-04T00:01:15.182Z,13.77
2018-02-04T00:03:43.743Z,14.60
2018-02-04T00:06:11.425Z,13.07
2018-02-04T00:08:39.080Z,13.53
2018-02-04T00:11:08.872Z,13.67
2018-02-04T00:13:36.550Z,14.87
2018-02-04T00:16:04.391Z,13.00
2018-02-04T00:18:34.871Z,13.53
2018-02-04T00:21:02.796Z,14.03
2018-02-04T00:23:30.409Z,12.70
2018-02-04T00:25:58.803Z,11.50
2018-02-04T00:28:27.721Z,11.47
2018-02-04T00:30:56.877Z,12.20
2018-02-04T00:33:24.525Z,12.00
2018-02-04T00:35:53.130Z,10.50
2018-02-04T00:38:23.638Z,10.23
2018-02-04T00:40:52.968Z,10.20
2018-02-04T00:43:23.158Z,9.57
2018-02-04T00:45:55.566Z,10.00
2018-02-04T00:48:24.200Z,10.40
2018-02-04T00:50:53.793Z,9.70
2018-02-04T00:53:22.811Z,10.43
2018-02-04T00:55:51.200Z,10.33
2018-02-04T00:58:18.978Z,9.83
2018-02-04T01:00:47.805Z,8.87
2018-02-04T01:03:16.237Z,8.97
2018-02-04T01:05:44.741Z,9.50
2018-02-04T01:08:14.245Z,8.40
2018-02-04T01:10:45.258Z,8.77
2018-02-04T01:13:12.931Z,9.03
2018-02-04T01:15:40.618Z,9.13
2018-02-04T01:18:08.284Z,8.80
2018-02-04T01:20:36.734Z,7.83
2018-02-04T01:23:04.407Z,8.63
2018-02-04T01:25:33.381Z,8.23
2018-02-04T01:28:01.476Z,8.57
2018-02-04T01:30:29.168Z,8.40
2018-02-04T01:32:57.709Z,8.43
2018-02-04T01:35:26.428Z,8.30
2018-02-04T01:37:54.839Z,7.87
2018-02-04T01:40:31.096Z,7.37
2018-02-04T01:42:58.779Z,7.97
2018-02-04T01:45:26.436Z,8.50
2018-02-04T01:48:05.936Z,7.37
2018-02-04T01:50:34.871Z,7.70
2018-02-04T01:53:03.517Z,7.23
2018-02-04T01:55:31.197Z,7.63
2018-02-04T01:57:59.635Z,8.23
2018-02-04T02:00:28.080Z,7.30
2018-02-04T02:02:56.531Z,7.90
2018-02-04T02:05:26.301Z,7.90
2018-02-04T02:07:53.967Z,7.63
2018-02-04T02:10:24.256Z,7.10
2018-02-04T02:12:52.229Z,7.33
2018-02-04T02:15:20.079Z,7.73
2018-02-04T02:17:47.762Z,7.07
2018-02-04T02:20:17.455Z,7.47
2018-02-04T02:22:46.440Z,8.10
2018-02-04T02:25:14.894Z,7.77
2018-02-04T02:27:42.566Z,8.40
2018-02-04T02:30:10.283Z,8.47
2018-02-04T02:32:37.882Z,8.23
2018-02-04T02:35:05.633Z,7.90
2018-02-04T02:37:33.318Z,9.27
2018-02-04T02:40:01.000Z,8.13
2018-02-04T02:42:29.480Z,9.07
2018-02-04T02:44:57.915Z,9.40
2018-02-04T02:47:25.587Z,9.67
2018-02-04T02:49:53.468Z,9.87
2018-02-04T02:52:21.157Z,9.80
2018-02-04T02:54:48.934Z,9.60
2018-02-04T02:57:16.787Z,9.13
2018-02-04T02:59:45.598Z,9.50
2018-02-04T03:02:13.312Z,10.50
2018-02-04T03:04:40.987Z,9.63
2018-02-04T03:07:08.673Z,9.77
2018-02-04T03:09:37.667Z,10.47
2018-02-04T03:12:10.123Z,9.80
2018-02-04T03:14:37.845Z,9.70
2018-02-04T03:17:05.667Z,9.37
2018-02-04T03:19:33.351Z,9.93
2018-02-04T03:22:01.016Z,10.17
2018-02-04T03:24:28.723Z,10.23
2018-02-04T03:26:56.398Z,10.33
2018-02-04T03:29:24.076Z,10.67
2018-02-04T03:31:51.777Z,10.17
2018-02-04T03:34:19.497Z,10.17
2018-02-04T03:36:47.183Z,9.73
2018-02-04T03:39:14.805Z,10.07
2018-02-04T03:41:46.306Z,9.97
2018-02-04T03:44:15.310Z,10.27
2018-02-04T03:46:42.931Z,9.53
2018-02-04T03:49:10.521Z,9.17
2018-02-04T03:51:38.911Z,9.73
2018-02-04T03:54:06.921Z,9.90
2018-02-04T03:56:36.623Z,9.33
2018-02-04T03:59:04.678Z,9.50
2018-02-04T04:01:32.351Z,8.67
2018-02-04T04:04:00.059Z,8.77
2018-02-04T04:06:27.760Z,8.97
2018-02-04T04:08:55.429Z,8.43
2018-02-04T04:11:23.812Z,8.67
2018-02-04T04:13:51.414Z,9.10
2018-02-04T04:16:19.076Z,8.83
2018-02-04T04:18:46.769Z,9.10
2018-02-04T04:21:15.229Z,8.30
2018-02-04T04:23:42.909Z,8.13
2018-02-04T04:26:13.505Z,7.70
2018-02-04T04:28:42.522Z,8.37
2018-02-04T04:31:13.457Z,7.97
2018-02-04T04:33:41.154Z,7.27
2018-02-04T04:36:08.934Z,8.10
2018-02-04T04:38:36.655Z,7.10
2018-02-04T04:41:07.469Z,7.03
2018-02-04T04:43:35.160Z,7.13
2018-02-04T04:46:02.847Z,7.03
2018-02-04T04:48:31.281Z,6.50
2018-02-04T04:50:59.256Z,6.50
2018-02-04T04:53:26.934Z,7.13
2018-02-04T04:55:54.617Z,6.23
2018-02-04T04:58:23.057Z,5.93
2018-02-04T05:00:51.386Z,6.07
2018-02-04T05:03:20.524Z,6.27
2018-02-04T05:05:48.245Z,6.43
2018-02-04T05:08:15.934Z,6.13
2018-02-04T05:10:43.806Z,6.23
2018-02-04T05:13:11.385Z,5.80
2018-02-04T05:15:39.468Z,6.23
2018-02-04T05:18:07.274Z,6.27
2018-02-04T05:20:35.746Z,5.87
2018-02-04T05:23:04.503Z,6.00
2018-02-04T05:25:32.194Z,6.10
2018-02-04T05:27:59.896Z,6.63
2018-02-04T05:30:27.586Z,6.27
2018-02-04T05:32:55.276Z,7.13
2018-02-04T05:35:23.695Z,7.00
2018-02-04T05:37:54.826Z,6.23
2018-02-04T05:40:23.263Z,6.30
2018-02-04T05:42:52.227Z,5.67
2018-02-04T05:45:20.753Z,6.50
2018-02-04T05:47:49.583Z,6.67
2018-02-04T05:50:17.503Z,7.10
2018-02-04T05:52:45.202Z,6.73
2018-02-04T05:55:13.726Z,7.00
2018-02-04T05:57:41.371Z,6.37
2018-02-04T06:00:09.237Z,6.70
2018-02-04T06:02:36.908Z,7.00
2018-02-04T06:05:04.652Z,7.23
2018-02-04T06:07:34.411Z,7.67
2018-02-04T06:10:02.081Z,7.33
2018-02-04T06:12:29.773Z,9.77
2018-02-04T06:14:57.491Z,7.60
2018-02-04T06:17:25.310Z,7.20
2018-02-04T06:19:53.816Z,7.07
2018-02-04T06:22:21.548Z,8.20
2018-02-04T06:24:50.048Z,7.43
2018-02-04T06:27:17.797Z,6.80
2018-02-04T06:29:45.707Z,8.10
2018-02-04T06:32:13.387Z,7.50
2018-02-04T06:34:41.071Z,7.87
2018-02-04T06:37:08.787Z,8.10
2018-02-04T06:39:36.449Z,7.90
2018-02-04T06:42:04.893Z,8.70
2018-02-04T06:44:32.574Z,8.07
2018-02-04T06:47:01.015Z,8.73
2018-02-04T06:49:28.709Z,8.47
2018-02-04T06:51:57.460Z,7.77
2018-02-04T06:54:25.067Z,7.73
2018-02-04T06:56:52.761Z,8.67
2018-02-04T06:59:21.463Z,8.33
2018-02-04T07:01:49.218Z,8.30
2018-02-04T07:04:16.925Z,8.20
2018-02-04T07:06:45.887Z,8.30
2018-02-04T07:09:13.536Z,8.37
2018-02-04T07:11:41.214Z,8.53
2018-02-04T07:14:10.292Z,8.13
2018-02-04T07:16:38.189Z,8.63
2018-02-04T07:19:06.050Z,8.43
2018-02-04T07:21:35.892Z,7.70
2018-02-04T07:24:03.602Z,8.73
2018-02-04T07:26:31.285Z,8.73
2018-02-04T07:29:00.168Z,8.47
2018-02-04T07:31:27.967Z,10.00
2018-02-04T07:33:56.200Z,9.83
2018-02-04T07:36:24.881Z,9.53
2018-02-04T07:38:54.285Z,9.40
2018-02-04T07:41:23.839Z,10.50
2018-02-04T07:43:52.383Z,9.60
2018-02-04T07:46:21.211Z,10.47
2018-02-04T07:48:48.952Z,10.67
2018-02-04T07:51:16.632Z,10.50
2018-02-04T07:53:44.697Z,11.10
2018-02-04T07:56:13.384Z,10.23
2018-02-04T07:58:41.231Z,11.70
2018-02-04T08:01:09.814Z,11.00
2018-02-04T08:03:37.682Z,11.40
2018-02-04T08:06:06.690Z,10.50
2018-02-04T08:08:34.345Z,10.80
2018-02-04T08:11:04.712Z,11.03
2018-02-04T08:13:34.813Z,11.13
2018-02-04T08:16:04.171Z,10.30
2018-02-04T08:18:40.020Z,10.37
2018-02-04T08:21:10.389Z,11.30
2018-02-04T08:23:38.929Z,10.57
2018-02-04T08:26:06.549Z,12.45
2018-02-04T08:28:35.108Z,13.17
2018-02-04T08:31:06.546Z,13.93
2018-02-04T08:33:34.333Z,11.07
2018-02-04T08:36:04.002Z,11.47
2018-02-04T08:38:31.746Z,11.50
2018-02-04T08:40:59.433Z,11.63
2018-02-04T08:43:27.878Z,15.57
2018-02-04T08:45:55.539Z,24.80
2018-02-04T08:48:36.900Z,16.90
2018-02-04T08:51:04.784Z,11.27
2018-02-04T08:53:32.481Z,36.73
2018-02-04T08:56:01.085Z,12.80
2018-02-04T08:58:28.777Z,24.30
2018-02-04T09:00:58.220Z,22.03
2018-02-04T09:03:27.595Z,11.77
2018-02-04T09:05:56.143Z,12.03
2018-02-04T09:08:23.879Z,14.03
2018-02-04T09:10:51.603Z,12.90
2018-02-04T09:13:19.311Z,11.93
2018-02-04T09:15:46.983Z,17.10
2018-02-04T09:18:14.863Z,12.13
2018-02-04T09:20:43.286Z,12.97
2018-02-04T09:23:10.978Z,12.03
2018-02-04T09:25:39.779Z,12.20
2018-02-04T09:28:07.447Z,11.63
2018-02-04T09:30:35.140Z,11.13
2018-02-04T09:33:02.808Z,14.10
2018-02-04T09:35:31.256Z,11.07
2018-02-04T09:37:58.924Z,12.17
2018-02-04T09:40:26.594Z,12.33
2018-02-04T09:42:55.055Z,25.43
2018-02-04T09:45:22.734Z,19.53
2018-02-04T09:47:50.409Z,22.77
2018-02-04T09:50:18.106Z,23.70
2018-02-04T09:52:45.796Z,20.33
2018-02-04T09:55:13.564Z,14.17
2018-02-04T09:57:41.267Z,11.60
2018-02-04T10:00:09.740Z,19.80
2018-02-04T10:02:37.799Z,11.40
2018-02-04T10:05:05.481Z,11.73
2018-02-04T10:07:33.956Z,13.10
2018-02-04T10:10:02.183Z,11.73
2018-02-04T10:12:30.204Z,12.20
2018-02-04T10:14:57.876Z,10.63
2018-02-04T10:17:25.525Z,10.00
2018-02-04T10:19:53.215Z,34.87
2018-02-04T10:22:20.874Z,31.97
2018-02-04T10:24:49.440Z,21.90
2018-02-04T10:27:17.105Z,9.00
2018-02-04T10:29:44.752Z,20.63
2018-02-04T10:32:12.435Z,37.23
2018-02-04T10:34:40.876Z,13.30
2018-02-04T10:37:08.567Z,10.90
2018-02-04T10:39:36.226Z,10.40
2018-02-04T10:42:03.891Z,9.97
2018-02-04T10:44:31.587Z,10.27
2018-02-04T10:47:00.061Z,18.83
2018-02-04T10:49:27.723Z,10.70
2018-02-04T10:52:02.007Z,10.53
2018-02-04T10:54:29.717Z,9.80
2018-02-04T10:56:58.152Z,10.33
2018-02-04T10:59:25.827Z,9.77
2018-02-04T11:01:53.487Z,11.37
2018-02-04T11:04:21.157Z,11.67
2018-02-04T11:06:48.834Z,10.70
2018-02-04T11:09:17.300Z,11.10
2018-02-04T11:11:44.966Z,9.80
2018-02-04T11:14:16.078Z,9.70
2018-02-04T11:16:43.760Z,10.70
2018-02-04T11:19:11.437Z,10.47
2018-02-04T11:21:39.096Z,9.77
2018-02-04T11:24:06.760Z,11.40
2018-02-04T11:26:34.457Z,9.57
2018-02-04T11:29:02.132Z,9.90
2018-02-04T11:31:29.828Z,10.00
2018-02-04T11:33:57.496Z,11.87
2018-02-04T11:36:25.159Z,24.47
2018-02-04T11:38:52.830Z,11.80
2018-02-04T11:41:20.510Z,15.57
2018-02-04T11:43:50.279Z,14.87
2018-02-04T11:46:17.991Z,12.33
2018-02-04T11:48:46.471Z,11.83
2018-02-04T11:51:14.202Z,11.63
2018-02-04T11:53:42.479Z,15.90
2018-02-04T11:56:10.448Z,14.03
2018-02-04T11:58:38.097Z,17.77
2018-02-04T12:01:05.808Z,14.23
2018-02-04T12:03:33.501Z,13.57
2018-02-04T12:06:01.186Z,13.70
2018-02-04T12:08:28.847Z,13.90
2018-02-04T12:10:56.510Z,13.63
2018-02-04T12:13:24.947Z,15.03
2018-02-04T12:15:52.652Z,25.33
2018-02-04T12:18:20.310Z,15.93
2018-02-04T12:20:47.979Z,15.53
2018-02-04T12:23:15.666Z,12.13
2018-02-04T12:25:43.356Z,13.67
2018-02-04T12:28:11.019Z,12.00
2018-02-04T12:30:39.577Z,11.63
2018-02-04T12:33:07.346Z,11.17
2018-02-04T12:35:38.637Z,12.87
2018-02-04T12:38:06.316Z,10.50
2018-02-04T12:40:33.982Z,10.77
2018-02-04T12:45:43.316Z,11.50
2018-02-04T12:48:16.931Z,12.00
2018-02-04T12:50:52.827Z,13.23
2018-02-04T12:53:26.431Z,13.53
2018-02-04T12:56:01.258Z,12.30
2018-02-04T12:58:35.991Z,14.30
2018-02-04T13:01:08.866Z,13.83
2018-02-04T13:03:42.181Z,13.90
2018-02-04T13:06:16.129Z,14.43
2018-02-04T13:08:44.525Z,13.97
2018-02-04T13:11:12.960Z,13.83
2018-02-04T13:13:40.648Z,14.57
2018-02-04T13:16:09.102Z,24.17
2018-02-04T13:18:37.249Z,39.97
2018-02-04T13:21:04.901Z,33.27
2018-02-04T13:23:39.859Z,20.27
2018-02-04T13:26:08.857Z,17.03
2018-02-04T13:28:36.475Z,16.07
2018-02-04T13:31:04.086Z,16.93
2018-02-04T13:33:31.772Z,15.53
2018-02-04T13:35:59.465Z,16.57
2018-02-04T13:38:27.145Z,16.07
2018-02-04T13:40:54.799Z,17.27
2018-02-04T13:43:22.472Z,15.63
2018-02-04T13:45:50.137Z,30.93
2018-02-04T13:48:17.821Z,17.37
2018-02-04T13:50:45.820Z,16.70
2018-02-04T13:53:17.972Z,15.60
2018-02-04T13:55:45.660Z,16.67
2018-02-04T13:58:13.336Z,15.70
2018-02-04T14:00:41.779Z,15.90
2018-02-04T14:03:09.460Z,15.03
2018-02-04T14:05:37.156Z,15.60
2018-02-04T14:08:04.833Z,16.03
2018-02-04T14:10:32.513Z,14.43
2018-02-04T14:13:00.200Z,14.57
2018-02-04T14:15:27.821Z,14.33
2018-02-04T14:17:55.482Z,20.30
2018-02-04T14:20:23.132Z,13.13
2018-02-04T14:22:50.807Z,14.67
2018-02-04T14:25:18.632Z,14.67
2018-02-04T14:27:46.285Z,14.90
2018-02-04T14:30:14.731Z,14.80
2018-02-04T14:32:42.444Z,17.50
2018-02-04T14:35:10.116Z,14.67
2018-02-04T14:37:37.798Z,14.30
2018-02-04T14:40:05.463Z,14.10
2018-02-04T14:42:33.154Z,13.90
2018-02-04T14:45:01.316Z,14.43
2018-02-04T14:47:29.338Z,14.27
2018-02-04T14:50:02.016Z,15.70
2018-02-04T14:52:29.976Z,15.40
2018-02-04T14:54:57.655Z,15.63
2018-02-04T14:57:25.329Z,17.37
2018-02-04T14:59:53.189Z,19.27
2018-02-04T15:02:20.868Z,17.33
2018-02-04T15:04:49.540Z,16.70
2018-02-04T15:07:17.284Z,15.70
2018-02-04T15:09:44.968Z,16.60
2018-02-04T15:12:12.654Z,15.60
2018-02-04T15:14:42.518Z,16.50
2018-02-04T15:17:10.211Z,14.70
2018-02-04T15:19:37.891Z,15.37
2018-02-04T15:22:06.398Z,14.17
2018-02-04T15:24:34.150Z,15.73
2018-02-04T15:27:02.570Z,17.20
2018-02-04T15:29:30.274Z,18.13
2018-02-04T15:31:57.950Z,16.77
2018-02-04T15:34:26.401Z,17.53
2018-02-04T15:36:54.122Z,17.30
2018-02-04T15:39:22.274Z,15.67
2018-02-04T15:41:50.719Z,16.90
2018-02-04T15:44:18.460Z,22.77
2018-02-04T15:46:46.111Z,17.80
2018-02-04T15:49:13.697Z,13.97
2018-02-04T15:51:41.320Z,16.63
2018-02-04T15:54:08.986Z,17.63
2018-02-04T15:56:36.625Z,14.83
2018-02-04T15:59:05.072Z,13.57
2018-02-04T16:01:32.767Z,17.67
2018-02-04T16:04:01.248Z,22.23
2018-02-04T16:06:28.926Z,16.77
2018-02-04T16:08:57.416Z,13.90
2018-02-04T16:11:25.095Z,12.47
2018-02-04T16:13:53.806Z,12.87
2018-02-04T16:16:21.476Z,13.83
2018-02-04T16:18:49.155Z,12.53
2018-02-04T16:21:16.822Z,15.27
2018-02-04T16:23:44.516Z,15.77
2018-02-04T16:26:12.972Z,13.17
2018-02-04T16:28:40.683Z,11.67
2018-02-04T16:31:08.349Z,11.67
2018-02-04T16:33:36.018Z,13.20
2018-02-04T16:36:03.663Z,12.53
2018-02-04T16:38:31.340Z,12.93
2018-02-04T16:40:59.515Z,13.00
2018-02-04T16:43:27.097Z,12.23
2018-02-04T16:45:54.780Z,12.10
2018-02-04T16:48:22.452Z,11.87
2018-02-04T16:50:50.111Z,11.97
2018-02-04T16:53:17.789Z,12.57
2018-02-04T16:55:45.490Z,12.37
2018-02-04T16:58:13.172Z,12.60
2018-02-04T17:00:41.057Z,13.57
2018-02-04T17:03:08.784Z,13.03
2018-02-04T17:05:39.882Z,13.37
2018-02-04T17:08:07.559Z,18.40
2018-02-04T17:10:36.029Z,16.93
2018-02-04T17:13:04.779Z,14.60
2018-02-04T17:15:32.455Z,18.93
2018-02-04T17:18:00.130Z,14.83
2018-02-04T17:20:28.207Z,16.20
2018-02-04T17:22:57.273Z,18.17
2018-02-04T17:25:25.005Z,17.10
2018-02-04T17:27:54.091Z,16.17
2018-02-04T17:30:22.555Z,16.57
2018-02-04T17:32:50.215Z,17.07
2018-02-04T17:35:18.869Z,17.30
2018-02-04T17:37:46.815Z,17.80
2018-02-04T17:40:15.043Z,18.70
2018-02-04T17:42:42.902Z,18.23
2018-02-04T17:45:10.595Z,19.73
2018-02-04T17:47:39.209Z,18.53
2018-02-04T17:50:06.928Z,19.93
2018-02-04T17:52:34.644Z,21.00
2018-02-04T17:55:02.344Z,19.70
2018-02-04T17:57:30.007Z,19.50
2018-02-04T17:59:58.138Z,18.73
2018-02-04T18:02:25.801Z,18.87
2018-02-04T18:04:54.420Z,19.27
2018-02-04T18:07:22.122Z,20.07
2018-02-04T18:09:49.802Z,19.10
2018-02-04T18:12:18.418Z,19.30
2018-02-04T18:14:46.401Z,19.40
2018-02-04T18:17:14.506Z,20.53
2018-02-04T18:19:42.163Z,19.17
2018-02-04T18:22:10.254Z,20.20
2018-02-04T18:24:39.968Z,20.70
2018-02-04T18:27:07.742Z,22.47
2018-02-04T18:29:35.412Z,22.30
2018-02-04T18:32:03.617Z,22.57
2018-02-04T18:34:34.649Z,20.60
2018-02-04T18:37:02.372Z,21.87
2018-02-04T18:39:30.056Z,23.03
2018-02-04T18:41:58.507Z,22.07
2018-02-04T18:44:26.118Z,22.50
2018-02-04T18:46:53.828Z,21.40
2018-02-04T18:49:21.579Z,22.10
2018-02-04T18:51:49.231Z,22.10
2018-02-04T18:54:16.847Z,22.17
2018-02-04T18:56:44.519Z,24.20
2018-02-04T18:59:12.179Z,24.90
2018-02-04T19:01:40.655Z,24.07
2018-02-04T19:04:10.186Z,25.43
2018-02-04T19:06:37.838Z,24.83
2018-02-04T19:09:05.502Z,23.87
2018-02-04T19:11:33.175Z,23.73
2018-02-04T19:14:00.856Z,23.40
2018-02-04T19:16:28.544Z,22.13
2018-02-04T19:18:56.212Z,21.13
2018-02-04T19:21:23.890Z,24.10
2018-02-04T19:23:52.344Z,22.83
2018-02-04T19:26:20.012Z,22.87
2018-02-04T19:28:47.663Z,23.80
2018-02-04T19:31:15.589Z,22.73
2018-02-04T19:33:44.235Z,22.80
2018-02-04T19:36:11.911Z,24.50
2018-02-04T19:38:39.593Z,24.80
2018-02-04T19:41:07.280Z,26.00
2018-02-04T19:43:34.969Z,24.40
2018-02-04T19:46:02.640Z,23.97
2018-02-04T19:48:30.323Z,26.27
2018-02-04T19:50:58.009Z,25.20
2018-02-04T19:53:26.440Z,26.30
2018-02-04T19:55:56.640Z,24.93
2018-02-04T19:58:24.366Z,25.57
2018-02-04T20:00:51.943Z,26.27
2018-02-04T20:03:19.612Z,26.53
2018-02-04T20:05:48.071Z,26.03
2018-02-04T20:08:15.754Z,21.53
2018-02-04T20:10:44.202Z,27.37
2018-02-04T20:13:11.865Z,27.07
2018-02-04T20:15:39.553Z,26.70
2018-02-04T20:18:08.007Z,25.27
2018-02-04T20:20:35.657Z,24.43
2018-02-04T20:23:03.334Z,24.93
2018-02-04T20:25:34.488Z,25.50
2018-02-04T20:28:02.168Z,26.23
2018-02-04T20:30:30.614Z,23.80
2018-02-04T20:33:09.979Z,26.20
2018-02-04T20:35:38.432Z,26.73
2018-02-04T20:38:06.113Z,24.93
2018-02-04T20:40:33.808Z,27.43
2018-02-04T20:43:01.449Z,27.83
2018-02-04T20:45:32.258Z,26.70
2018-02-04T20:47:59.944Z,27.73
2018-02-04T20:50:28.083Z,27.47
2018-02-04T20:52:55.872Z,25.60
2018-02-04T20:55:24.357Z,25.20
2018-02-04T20:57:52.503Z,28.20
2018-02-04T21:00:20.108Z,26.33
2018-02-04T21:02:47.694Z,27.07
2018-02-04T21:05:15.856Z,26.43
2018-02-04T21:07:44.317Z,26.63
2018-02-04T21:10:11.996Z,27.80
2018-02-04T21:12:40.432Z,27.80
2018-02-04T21:15:08.197Z,26.90
2018-02-04T21:17:35.864Z,27.80
2018-02-04T21:20:03.557Z,25.47
2018-02-04T21:22:31.272Z,27.80
2018-02-04T21:24:58.935Z,28.83
2018-02-04T21:27:26.589Z,30.37
2018-02-04T21:29:54.266Z,28.83
2018-02-04T21:32:21.932Z,25.30
2018-02-04T21:34:49.624Z,28.93
2018-02-04T21:37:17.289Z,28.90
2018-02-04T21:39:44.960Z,26.80
2018-02-04T21:42:12.638Z,29.63
2018-02-04T21:44:48.723Z,27.37
2018-02-04T21:47:16.397Z,26.30
2018-02-04T21:49:44.063Z,26.20
2018-02-04T21:52:11.766Z,30.60
2018-02-04T21:54:39.444Z,27.63
2018-02-04T21:57:07.117Z,25.90
2018-02-04T21:59:34.808Z,27.23
2018-02-04T22:02:02.482Z,25.77
2018-02-04T22:04:30.172Z,25.13
2018-02-04T22:06:57.870Z,26.40
2018-02-04T22:09:25.548Z,26.03
2018-02-04T22:11:53.218Z,25.27
2018-02-04T22:14:22.879Z,25.33
2018-02-04T22:16:50.567Z,24.67
2018-02-04T22:19:19.010Z,24.03
2018-02-04T22:21:46.676Z,25.30
2018-02-04T22:24:14.330Z,22.43
2018-02-04T22:26:41.990Z,26.13
2018-02-04T22:29:09.681Z,25.23
2018-02-04T22:31:37.365Z,25.47
2018-02-04T22:34:05.802Z,25.40
2018-02-04T22:36:33.491Z,25.20
2018-02-04T22:39:01.160Z,25.30
2018-02-04T22:41:28.844Z,26.60
2018-02-04T22:43:58.264Z,27.40
2018-02-04T22:46:25.945Z,25.07
2018-02-04T22:48:53.586Z,24.00
2018-02-04T22:51:21.295Z,24.10
2018-02-04T22:53:49.003Z,25.70
2018-02-04T22:56:17.555Z,25.23
2018-02-04T22:58:45.234Z,24.73
2018-02-04T23:01:12.926Z,26.33
2018-02-04T23:03:40.631Z,25.20
2018-02-04T23:06:08.313Z,23.77
2018-02-04T23:08:36.714Z,22.83
2018-02-04T23:11:05.164Z,23.70
2018-02-04T23:13:32.867Z,22.53
2018-02-04T23:16:01.302Z,21.87
2018-02-04T23:18:28.986Z,22.13
2018-02-04T23:20:56.665Z,22.67
2018-02-04T23:23:25.124Z,21.83
2018-02-04T23:25:52.821Z,21.90
2018-02-04T23:28:20.609Z,22.43
2018-02-04T23:30:48.279Z,23.00
2018-02-04T23:33:15.984Z,20.93
2018-02-04T23:35:45.220Z,21.27
2018-02-04T23:38:13.678Z,18.80
2018-02-04T23:40:41.334Z,20.63
2018-02-04T23:43:08.996Z,19.93
2018-02-04T23:45:36.663Z,20.67
2018-02-04T23:48:04.340Z,20.33
2018-02-04T23:50:32.750Z,20.70
2018-02-04T23:53:00.460Z,17.80
2018-02-04T23:55:28.150Z,19.53
2018-02-04T23:57:56.598Z,20.50
